createdAt,value
2018-04-06T00:00:49.593Z,16.41
2018-04-06T00:03:17.197Z,16.31
2018-04-06T00:05:44.756Z,16.25
2018-04-06T00:08:12.324Z,16.17
2018-04-06T00:10:39.890Z,16.14
2018-04-06T00:13:07.510Z,16.05
2018-04-06T00:15:35.072Z,15.99
2018-04-06T00:18:02.742Z,15.89
2018-04-06T00:20:30.311Z,15.73
2018-04-06T00:22:57.871Z,15.64
2018-04-06T00:25:25.434Z,15.56
2018-04-06T00:27:52.985Z,15.54
2018-04-06T00:30:20.561Z,15.47
2018-04-06T00:32:48.163Z,15.41
2018-04-06T00:35:15.793Z,15.35
2018-04-06T00:37:43.417Z,15.29
2018-04-06T00:40:11.046Z,15.17
2018-04-06T00:42:38.671Z,15.08
2018-04-06T00:45:06.239Z,14.99
2018-04-06T00:47:33.882Z,14.90
2018-04-06T00:50:01.468Z,14.88
2018-04-06T00:52:29.134Z,14.86
2018-04-06T00:54:56.686Z,14.86
2018-04-06T00:57:24.242Z,14.84
2018-04-06T01:02:18.715Z,14.81
2018-04-06T01:04:46.350Z,14.83
2018-04-06T01:07:13.971Z,14.86
2018-04-06T01:09:41.614Z,14.92
2018-04-06T01:12:09.242Z,14.98
2018-04-06T01:14:36.798Z,14.98
2018-04-06T01:17:04.365Z,15.01
2018-04-06T01:19:31.918Z,15.06
2018-04-06T01:21:59.480Z,15.09
2018-04-06T01:24:27.050Z,15.13
2018-04-06T01:26:54.675Z,15.12
2018-04-06T01:29:22.243Z,15.12
2018-04-06T01:31:49.848Z,15.15
2018-04-06T01:34:17.474Z,15.17
2018-04-06T01:36:45.110Z,15.24
2018-04-06T01:39:12.676Z,15.33
2018-04-06T01:41:40.259Z,15.37
2018-04-06T01:44:07.804Z,15.37
2018-04-06T01:46:35.426Z,15.35
2018-04-06T01:49:02.978Z,15.34
2018-04-06T01:51:30.531Z,15.36
2018-04-06T01:53:58.130Z,15.30
2018-04-06T01:56:25.695Z,15.33
2018-04-06T01:58:53.324Z,15.35
2018-04-06T02:01:20.878Z,15.36
2018-04-06T02:03:48.502Z,15.40
2018-04-06T02:06:16.063Z,15.43
2018-04-06T02:08:43.619Z,15.54
2018-04-06T02:11:11.239Z,15.65
2018-04-06T02:13:38.862Z,15.72
2018-04-06T02:16:06.531Z,15.77
2018-04-06T02:18:34.150Z,15.79
2018-04-06T02:21:01.770Z,15.79
2018-04-06T02:23:29.338Z,15.76
2018-04-06T02:25:56.898Z,15.71
2018-04-06T02:28:24.530Z,15.69
2018-04-06T02:30:52.090Z,15.64
2018-04-06T02:33:19.702Z,15.57
2018-04-06T02:35:47.268Z,15.53
2018-04-06T02:38:14.887Z,15.50
2018-04-06T02:40:42.517Z,15.43
2018-04-06T02:43:10.161Z,15.42
2018-04-06T02:45:37.742Z,15.39
2018-04-06T02:48:05.358Z,15.37
2018-04-06T02:50:33.022Z,15.39
2018-04-06T02:53:00.648Z,15.45
2018-04-06T02:55:28.210Z,15.43
2018-04-06T02:57:55.859Z,15.49
2018-04-06T03:00:23.414Z,15.46
2018-04-06T03:02:51.045Z,15.47
2018-04-06T03:05:18.617Z,15.43
2018-04-06T03:07:46.287Z,15.49
2018-04-06T03:10:13.831Z,15.54
2018-04-06T03:12:41.391Z,15.53
2018-04-06T03:15:08.966Z,15.49
2018-04-06T03:17:36.587Z,15.40
2018-04-06T03:20:04.159Z,15.23
2018-04-06T03:22:31.820Z,15.19
2018-04-06T03:24:59.490Z,15.12
2018-04-06T03:27:27.108Z,15.08
2018-04-06T03:29:54.667Z,15.07
2018-04-06T03:32:22.236Z,15.09
2018-04-06T03:34:49.855Z,15.04
2018-04-06T03:37:17.437Z,15.06
2018-04-06T03:39:44.998Z,15.10
2018-04-06T03:42:12.671Z,15.07
2018-04-06T03:44:40.226Z,15.10
2018-04-06T03:47:07.880Z,15.08
2018-04-06T03:49:35.516Z,15.08
2018-04-06T03:52:03.066Z,15.07
2018-04-06T03:54:30.662Z,15.09
2018-04-06T03:56:58.229Z,15.10
2018-04-06T03:59:25.884Z,15.09
2018-04-06T04:01:53.445Z,15.11
2018-04-06T04:04:21.008Z,15.06
2018-04-06T04:06:48.635Z,15.04
2018-04-06T04:09:16.199Z,15.01
2018-04-06T04:11:43.810Z,15.02
2018-04-06T04:14:11.367Z,15.04
2018-04-06T04:16:39.026Z,15.07
2018-04-06T04:19:06.582Z,15.06
2018-04-06T04:21:34.142Z,15.08
2018-04-06T04:24:01.771Z,15.11
2018-04-06T04:26:29.397Z,15.13
2018-04-06T04:28:56.972Z,15.13
2018-04-06T04:31:24.532Z,15.08
2018-04-06T04:33:52.138Z,14.98
2018-04-06T04:36:19.765Z,14.94
2018-04-06T04:38:47.331Z,15.01
2018-04-06T04:41:14.900Z,15.05
2018-04-06T04:43:42.463Z,15.02
2018-04-06T04:46:10.047Z,14.97
2018-04-06T04:48:37.603Z,14.91
2018-04-06T04:51:05.235Z,14.90
2018-04-06T04:53:32.851Z,14.88
2018-04-06T04:56:00.415Z,14.90
2018-04-06T04:58:28.000Z,14.93
2018-04-06T05:00:55.629Z,14.92
2018-04-06T05:03:23.279Z,14.93
2018-04-06T05:05:50.851Z,14.97
2018-04-06T05:08:18.419Z,15.00
2018-04-06T05:10:46.103Z,15.03
2018-04-06T05:13:13.681Z,15.10
2018-04-06T05:15:41.297Z,15.18
2018-04-06T05:18:08.940Z,15.20
2018-04-06T05:20:36.502Z,15.22
2018-04-06T05:23:04.075Z,15.20
2018-04-06T05:25:31.716Z,15.21
2018-04-06T05:27:59.302Z,15.12
2018-04-06T05:30:26.866Z,15.00
2018-04-06T05:32:54.494Z,14.99
2018-04-06T05:35:22.118Z,14.96
2018-04-06T05:37:49.680Z,15.01
2018-04-06T05:40:17.260Z,15.07
2018-04-06T05:42:44.843Z,15.15
2018-04-06T05:45:12.493Z,15.35
2018-04-06T05:47:40.119Z,15.50
2018-04-06T05:50:07.750Z,15.84
2018-04-06T05:52:35.312Z,16.19
2018-04-06T05:55:02.878Z,16.44
2018-04-06T05:57:30.449Z,17.04
2018-04-06T05:59:58.018Z,17.41
2018-04-06T06:02:25.601Z,17.32
2018-04-06T06:04:53.179Z,17.02
2018-04-06T06:07:20.835Z,16.91
2018-04-06T06:09:48.410Z,16.75
2018-04-06T06:12:15.995Z,17.05
2018-04-06T06:14:43.575Z,17.65
2018-04-06T06:17:11.150Z,18.20
2018-04-06T06:19:38.783Z,18.34
2018-04-06T06:22:06.406Z,18.43
2018-04-06T06:24:34.046Z,18.55
2018-04-06T06:27:01.666Z,18.97
2018-04-06T06:29:29.226Z,19.22
2018-04-06T06:31:56.798Z,19.48
2018-04-06T06:34:24.421Z,19.91
2018-04-06T06:36:52.107Z,20.58
2018-04-06T06:39:19.670Z,21.22
2018-04-06T06:41:47.290Z,21.79
2018-04-06T06:44:14.959Z,22.38
2018-04-06T06:46:42.575Z,22.55
2018-04-06T06:49:10.177Z,22.45
2018-04-06T06:51:37.802Z,22.05
2018-04-06T06:54:05.372Z,21.72
2018-04-06T06:56:32.937Z,21.26
2018-04-06T06:59:00.546Z,21.18
2018-04-06T07:01:28.115Z,20.73
2018-04-06T07:03:55.739Z,20.25
2018-04-06T07:06:23.331Z,19.77
2018-04-06T07:08:50.889Z,19.47
2018-04-06T07:11:18.459Z,19.24
2018-04-06T07:13:46.083Z,19.11
2018-04-06T07:16:13.698Z,18.84
2018-04-06T07:18:41.241Z,18.68
2018-04-06T07:21:08.856Z,18.66
2018-04-06T07:23:36.501Z,18.74
2018-04-06T07:26:04.128Z,18.45
2018-04-06T07:28:31.743Z,18.28
2018-04-06T07:30:59.301Z,18.49
2018-04-06T07:33:26.935Z,19.06
2018-04-06T07:35:54.504Z,19.37
2018-04-06T07:38:22.121Z,19.50
2018-04-06T07:40:49.692Z,19.46
2018-04-06T07:43:17.250Z,18.95
2018-04-06T07:45:44.842Z,19.01
2018-04-06T07:48:12.430Z,19.07
2018-04-06T07:50:40.053Z,19.19
2018-04-06T07:53:07.624Z,19.60
2018-04-06T07:55:35.192Z,19.80
2018-04-06T07:58:02.788Z,20.05
2018-04-06T08:00:30.382Z,20.36
2018-04-06T08:02:57.956Z,20.16
2018-04-06T08:05:25.515Z,20.44
2018-04-06T08:07:53.199Z,20.70
2018-04-06T08:10:20.819Z,20.41
2018-04-06T08:12:48.432Z,20.70
2018-04-06T08:15:16.064Z,20.98
2018-04-06T08:17:43.627Z,21.20
2018-04-06T08:20:11.198Z,21.50
2018-04-06T08:22:38.819Z,21.09
2018-04-06T08:25:06.448Z,20.43
2018-04-06T08:27:34.068Z,20.50
2018-04-06T08:30:01.694Z,20.64
2018-04-06T08:32:29.331Z,20.40
2018-04-06T08:34:56.913Z,20.28
2018-04-06T08:37:24.535Z,20.46
2018-04-06T08:39:52.099Z,20.29
2018-04-06T08:42:19.783Z,20.60
2018-04-06T08:44:47.348Z,20.72
2018-04-06T08:47:14.916Z,21.04
2018-04-06T08:49:42.490Z,20.92
2018-04-06T08:52:10.055Z,21.10
2018-04-06T08:54:37.643Z,21.69
2018-04-06T08:57:05.207Z,21.97
2018-04-06T08:59:32.814Z,22.58
2018-04-06T09:02:00.377Z,22.37
2018-04-06T09:04:27.943Z,22.58
2018-04-06T09:06:55.491Z,23.00
2018-04-06T09:09:23.054Z,23.27
2018-04-06T09:11:50.684Z,23.10
2018-04-06T09:14:18.257Z,23.54
2018-04-06T09:16:45.900Z,24.08
2018-04-06T09:19:13.474Z,23.90
2018-04-06T09:21:41.039Z,24.38
2018-04-06T09:24:08.603Z,24.87
2018-04-06T09:26:36.230Z,24.58
2018-04-06T09:29:03.869Z,24.78
2018-04-06T09:31:31.423Z,25.01
2018-04-06T09:33:59.114Z,25.27
2018-04-06T09:36:26.680Z,24.85
2018-04-06T09:38:54.316Z,24.51
2018-04-06T09:41:21.945Z,24.19
2018-04-06T09:43:49.661Z,23.98
2018-04-06T09:46:17.234Z,24.20
2018-04-06T09:48:44.813Z,23.95
2018-04-06T09:51:12.435Z,23.86
2018-04-06T09:53:40.034Z,23.75
2018-04-06T09:56:07.590Z,24.33
2018-04-06T09:58:35.232Z,24.71
2018-04-06T10:01:02.898Z,24.43
2018-04-06T10:03:30.466Z,24.59
2018-04-06T10:05:58.043Z,25.01
2018-04-06T10:08:25.723Z,25.20
2018-04-06T10:10:53.328Z,25.59
2018-04-06T10:13:20.874Z,25.24
2018-04-06T10:15:48.463Z,24.84
2018-04-06T10:18:16.096Z,24.54
2018-04-06T10:20:43.666Z,24.76
2018-04-06T10:23:11.219Z,25.35
2018-04-06T10:25:38.901Z,25.36
2018-04-06T10:28:06.472Z,25.17
2018-04-06T10:30:34.104Z,25.55
2018-04-06T10:33:01.698Z,26.27
2018-04-06T10:35:29.324Z,26.25
2018-04-06T10:37:56.953Z,25.65
2018-04-06T10:40:24.524Z,24.98
2018-04-06T10:42:52.219Z,24.25
2018-04-06T10:45:19.786Z,24.22
2018-04-06T10:47:47.361Z,23.98
2018-04-06T10:50:15.000Z,24.11
2018-04-06T10:52:42.577Z,24.40
2018-04-06T10:55:10.193Z,24.76
2018-04-06T10:57:37.751Z,24.56
2018-04-06T11:00:05.374Z,24.26
2018-04-06T11:02:33.047Z,24.62
2018-04-06T11:05:00.679Z,25.15
2018-04-06T11:07:28.282Z,26.05
2018-04-06T11:09:55.848Z,26.73
2018-04-06T11:12:23.409Z,26.43
2018-04-06T11:14:51.013Z,27.48
2018-04-06T11:17:18.703Z,28.56
2018-04-06T11:19:46.258Z,28.78
2018-04-06T11:22:13.941Z,28.93
2018-04-06T11:24:41.516Z,27.93
2018-04-06T11:27:09.080Z,27.89
2018-04-06T11:29:37.042Z,27.08
2018-04-06T11:32:04.668Z,26.62
2018-04-06T11:34:32.286Z,26.08
2018-04-06T11:36:59.909Z,25.30
2018-04-06T11:39:28.407Z,25.43
2018-04-06T11:41:55.982Z,24.89
2018-04-06T11:44:23.599Z,24.70
2018-04-06T11:46:51.167Z,24.32
2018-04-06T11:49:18.726Z,24.51
2018-04-06T11:51:46.364Z,24.42
2018-04-06T11:54:13.973Z,24.07
2018-04-06T11:56:41.582Z,24.10
2018-04-06T11:59:09.145Z,23.69
2018-04-06T12:01:36.795Z,23.41
2018-04-06T12:04:04.358Z,22.98
2018-04-06T12:06:31.914Z,23.08
2018-04-06T12:08:59.466Z,22.82
2018-04-06T12:11:27.031Z,22.91
2018-04-06T12:13:54.661Z,22.69
2018-04-06T12:16:22.228Z,22.53
2018-04-06T12:18:49.853Z,22.67
2018-04-06T12:21:17.468Z,22.64
2018-04-06T12:23:45.033Z,22.53
2018-04-06T12:26:12.611Z,22.80
2018-04-06T12:28:40.275Z,23.11
2018-04-06T12:31:07.895Z,23.36
2018-04-06T12:33:35.478Z,23.58
2018-04-06T12:36:03.244Z,23.85
2018-04-06T12:38:30.875Z,23.70
2018-04-06T12:40:58.504Z,23.66
2018-04-06T12:43:26.083Z,23.71
2018-04-06T12:45:53.723Z,23.61
2018-04-06T12:48:21.372Z,23.78
2018-04-06T12:50:49.003Z,23.74
2018-04-06T12:53:16.588Z,23.40
2018-04-06T12:55:44.151Z,22.78
2018-04-06T12:58:11.856Z,22.49
2018-04-06T13:00:39.443Z,22.69
2018-04-06T13:03:07.138Z,22.67
2018-04-06T13:05:34.764Z,22.20
2018-04-06T13:08:02.393Z,21.14
2018-04-06T13:10:29.962Z,20.92
2018-04-06T13:12:57.553Z,20.61
2018-04-06T13:15:25.187Z,20.54
2018-04-06T13:17:52.750Z,20.37
2018-04-06T13:20:20.387Z,20.34
2018-04-06T13:22:48.007Z,20.13
2018-04-06T13:25:15.558Z,20.24
2018-04-06T13:27:43.124Z,20.16
2018-04-06T13:30:10.726Z,20.12
2018-04-06T13:32:38.290Z,20.13
2018-04-06T13:35:05.925Z,20.05
2018-04-06T13:37:33.554Z,20.00
2018-04-06T13:40:01.118Z,20.01
2018-04-06T13:42:28.681Z,20.01
2018-04-06T13:44:56.349Z,20.19
2018-04-06T13:47:23.981Z,20.22
2018-04-06T13:49:51.561Z,20.18
2018-04-06T13:52:19.164Z,20.12
2018-04-06T13:54:46.793Z,19.95
2018-04-06T13:57:14.356Z,19.81
2018-04-06T13:59:41.914Z,19.68
2018-04-06T14:02:09.485Z,19.67
2018-04-06T14:04:37.074Z,19.65
2018-04-06T14:07:04.744Z,19.66
2018-04-06T14:09:32.367Z,19.34
2018-04-06T14:11:59.956Z,19.37
2018-04-06T14:14:27.518Z,19.60
2018-04-06T14:16:55.090Z,19.71
2018-04-06T14:19:22.673Z,19.82
2018-04-06T14:21:50.292Z,19.94
2018-04-06T14:24:17.855Z,19.98
2018-04-06T14:26:45.457Z,20.00
2018-04-06T14:29:13.064Z,19.92
2018-04-06T14:31:40.619Z,19.85
2018-04-06T14:34:08.254Z,19.87
2018-04-06T14:36:35.821Z,19.91
2018-04-06T14:39:03.447Z,19.80
2018-04-06T14:41:31.023Z,19.69
2018-04-06T14:43:58.650Z,19.58
2018-04-06T14:46:26.285Z,19.63
2018-04-06T14:48:53.941Z,19.45
2018-04-06T14:51:21.575Z,19.54
2018-04-06T14:53:49.221Z,19.64
2018-04-06T14:56:16.796Z,19.63
2018-04-06T14:58:44.418Z,19.46
2018-04-06T15:01:12.031Z,19.41
2018-04-06T15:03:39.638Z,19.44
2018-04-06T15:06:07.271Z,19.64
2018-04-06T15:08:34.826Z,19.63
2018-04-06T15:11:02.383Z,19.61
2018-04-06T15:13:29.939Z,19.59
2018-04-06T15:15:57.541Z,19.61
2018-04-06T15:18:25.106Z,19.62
2018-04-06T15:20:52.792Z,19.64
2018-04-06T15:23:20.350Z,19.52
2018-04-06T15:25:47.965Z,19.35
2018-04-06T15:28:15.696Z,19.46
2018-04-06T15:30:43.259Z,19.29
2018-04-06T15:33:10.845Z,19.12
2018-04-06T15:35:38.418Z,19.03
2018-04-06T15:38:06.031Z,18.97
2018-04-06T15:40:33.590Z,18.97
2018-04-06T15:43:01.160Z,18.90
2018-04-06T15:45:28.864Z,18.94
2018-04-06T15:47:56.503Z,18.95
2018-04-06T15:50:24.090Z,19.04
2018-04-06T15:52:51.658Z,19.02
2018-04-06T15:55:19.288Z,19.05
2018-04-06T15:57:46.861Z,18.99
2018-04-06T16:00:14.469Z,18.75
2018-04-06T16:02:42.067Z,18.70
2018-04-06T16:05:09.705Z,18.68
2018-04-06T16:07:37.315Z,18.51
2018-04-06T16:10:04.942Z,18.53
2018-04-06T16:12:32.558Z,18.45
2018-04-06T16:15:02.761Z,18.41
2018-04-06T16:17:30.427Z,18.34
2018-04-06T16:19:58.007Z,18.28
2018-04-06T16:22:25.574Z,18.22
2018-04-06T16:24:53.238Z,18.01
2018-04-06T16:27:20.866Z,18.04
2018-04-06T16:29:48.534Z,17.91
2018-04-06T16:32:16.090Z,17.83
2018-04-06T16:34:43.785Z,17.82
2018-04-06T16:37:11.363Z,17.78
2018-04-06T16:39:39.023Z,17.76
2018-04-06T16:42:06.603Z,17.75
2018-04-06T16:44:34.173Z,17.77
2018-04-06T16:47:01.772Z,17.70
2018-04-06T16:49:29.337Z,17.74
2018-04-06T16:51:56.911Z,17.74
2018-04-06T16:54:24.553Z,17.69
2018-04-06T16:56:52.154Z,17.67
2018-04-06T16:59:19.791Z,17.67
2018-04-06T17:01:47.350Z,17.65
2018-04-06T17:04:14.967Z,17.57
2018-04-06T17:06:42.526Z,17.59
2018-04-06T17:09:10.094Z,17.62
2018-04-06T17:11:37.732Z,17.64
2018-04-06T17:14:05.355Z,17.56
2018-04-06T17:16:32.985Z,17.48
2018-04-06T17:19:00.563Z,17.51
2018-04-06T17:21:28.203Z,17.38
2018-04-06T17:23:55.764Z,17.38
2018-04-06T17:26:23.373Z,17.35
2018-04-06T17:28:50.939Z,17.34
2018-04-06T17:31:18.570Z,17.32
2018-04-06T17:33:46.127Z,17.32
2018-04-06T17:36:13.694Z,17.29
2018-04-06T17:38:41.254Z,17.20
2018-04-06T17:41:08.898Z,17.22
2018-04-06T17:43:36.534Z,17.12
2018-04-06T17:46:04.539Z,17.12
2018-04-06T17:48:32.105Z,17.09
2018-04-06T17:50:59.662Z,17.12
2018-04-06T17:53:27.268Z,17.08
2018-04-06T17:55:54.840Z,17.08
2018-04-06T17:58:24.852Z,17.12
2018-04-06T18:00:52.403Z,17.17
2018-04-06T18:03:20.044Z,17.18
2018-04-06T18:05:47.675Z,17.13
2018-04-06T18:08:15.310Z,17.13
2018-04-06T18:10:42.882Z,17.08
2018-04-06T18:13:10.458Z,17.07
2018-04-06T18:15:38.110Z,17.09
2018-04-06T18:18:05.698Z,17.14
2018-04-06T18:20:33.274Z,17.16
2018-04-06T18:23:00.910Z,17.21
2018-04-06T18:25:28.551Z,17.21
2018-04-06T18:27:56.166Z,17.20
2018-04-06T18:30:23.771Z,17.17
2018-04-06T18:32:51.460Z,17.15
2018-04-06T18:35:19.043Z,17.16
2018-04-06T18:37:46.694Z,17.05
2018-04-06T18:40:14.334Z,17.03
2018-04-06T18:42:41.942Z,16.96
2018-04-06T18:45:09.518Z,16.98
2018-04-06T18:47:37.152Z,16.90
2018-04-06T18:50:04.774Z,16.92
2018-04-06T18:52:32.346Z,16.82
2018-04-06T18:54:59.911Z,16.80
2018-04-06T18:57:27.514Z,16.77
2018-04-06T18:59:55.136Z,16.69
2018-04-06T19:02:22.728Z,16.54
2018-04-06T19:04:50.304Z,16.44
2018-04-06T19:07:18.019Z,16.37
2018-04-06T19:09:45.586Z,16.29
2018-04-06T19:12:13.251Z,16.24
2018-04-06T19:14:40.833Z,16.15
2018-04-06T19:17:08.444Z,16.09
2018-04-06T19:19:36.071Z,16.07
2018-04-06T19:22:03.689Z,16.05
2018-04-06T19:24:31.394Z,16.00
2018-04-06T19:26:58.966Z,16.00
2018-04-06T19:29:26.595Z,16.06
2018-04-06T19:31:54.173Z,16.03
2018-04-06T19:34:21.742Z,16.07
2018-04-06T19:36:49.317Z,16.16
2018-04-06T19:39:16.951Z,16.17
2018-04-06T19:41:44.579Z,16.18
2018-04-06T19:44:12.159Z,16.22
2018-04-06T19:46:39.728Z,16.27
2018-04-06T19:49:07.298Z,16.38
2018-04-06T19:51:34.858Z,16.43
2018-04-06T19:54:02.444Z,16.47
2018-04-06T19:56:30.070Z,16.48
2018-04-06T19:58:57.698Z,16.44
2018-04-06T20:01:25.343Z,16.43
2018-04-06T20:03:52.925Z,16.50
2018-04-06T20:06:20.512Z,16.48
2018-04-06T20:08:48.135Z,16.48
2018-04-06T20:11:15.709Z,16.44
2018-04-06T20:13:43.279Z,16.38
2018-04-06T20:16:10.855Z,16.37
2018-04-06T20:18:38.426Z,16.15
2018-04-06T20:21:05.985Z,15.98
2018-04-06T20:23:33.633Z,15.95
2018-04-06T20:26:01.259Z,15.76
2018-04-06T20:28:28.901Z,15.79
2018-04-06T20:30:56.452Z,15.69
2018-04-06T20:33:24.091Z,15.66
2018-04-06T20:35:51.727Z,15.56
2018-04-06T20:38:19.285Z,15.50
2018-04-06T20:40:46.877Z,15.43
2018-04-06T20:43:14.449Z,15.38
2018-04-06T20:45:42.078Z,15.35
2018-04-06T20:48:09.662Z,15.30
2018-04-06T20:50:37.288Z,15.28
2018-04-06T20:53:04.862Z,15.34
2018-04-06T20:55:32.439Z,15.25
2018-04-06T20:58:00.058Z,15.17
2018-04-06T21:00:27.695Z,15.19
2018-04-06T21:02:55.309Z,15.11
2018-04-06T21:05:22.880Z,15.11
2018-04-06T21:07:50.571Z,15.09
2018-04-06T21:10:18.239Z,15.01
2018-04-06T21:12:45.874Z,14.94
2018-04-06T21:15:13.455Z,14.84
2018-04-06T21:17:41.018Z,14.80
2018-04-06T21:20:08.647Z,14.64
2018-04-06T21:22:36.223Z,14.57
2018-04-06T21:25:03.814Z,14.52
2018-04-06T21:27:31.384Z,14.47
2018-04-06T21:29:58.994Z,14.36
2018-04-06T21:32:26.577Z,14.34
2018-04-06T21:34:54.150Z,14.28
2018-04-06T21:37:21.799Z,14.28
2018-04-06T21:39:49.427Z,14.18
2018-04-06T21:42:17.068Z,14.21
2018-04-06T21:44:44.775Z,14.18
2018-04-06T21:47:12.393Z,14.18
2018-04-06T21:49:39.969Z,14.14
2018-04-06T21:52:07.546Z,14.05
2018-04-06T21:54:35.142Z,14.03
2018-04-06T21:57:02.807Z,14.02
2018-04-06T21:59:30.454Z,13.95
2018-04-06T22:01:58.033Z,13.94
2018-04-06T22:04:25.607Z,13.87
2018-04-06T22:06:53.176Z,13.82
2018-04-06T22:09:20.785Z,13.74
2018-04-06T22:11:48.443Z,13.78
2018-04-06T22:14:16.067Z,13.83
2018-04-06T22:16:43.656Z,13.90
2018-04-06T22:19:11.228Z,13.93
2018-04-06T22:21:38.840Z,13.96
2018-04-06T22:24:06.452Z,13.96
2018-04-06T22:26:34.148Z,13.92
2018-04-06T22:29:01.710Z,13.91
2018-04-06T22:31:29.313Z,13.83
2018-04-06T22:33:56.927Z,13.73
2018-04-06T22:36:24.552Z,13.69
2018-04-06T22:38:52.260Z,13.60
2018-04-06T22:41:19.892Z,13.53
2018-04-06T22:43:47.453Z,13.54
2018-04-06T22:46:15.043Z,13.56
2018-04-06T22:48:42.679Z,13.50
2018-04-06T22:51:10.308Z,13.45
2018-04-06T22:53:37.885Z,13.42
2018-04-06T22:56:05.490Z,13.38
2018-04-06T22:58:33.197Z,13.41
2018-04-06T23:01:00.830Z,13.39
2018-04-06T23:03:28.446Z,13.45
2018-04-06T23:05:56.090Z,13.46
2018-04-06T23:08:23.727Z,13.43
2018-04-06T23:10:51.324Z,13.42
2018-04-06T23:13:18.907Z,13.42
2018-04-06T23:15:46.565Z,13.43
2018-04-06T23:18:14.186Z,13.35
2018-04-06T23:20:41.799Z,13.35
2018-04-06T23:23:09.370Z,13.22
2018-04-06T23:25:36.959Z,13.18
2018-04-06T23:28:04.541Z,13.25
2018-04-06T23:30:32.211Z,13.25
2018-04-06T23:32:59.838Z,13.38
2018-04-06T23:35:27.464Z,13.33
2018-04-06T23:37:55.042Z,13.31
2018-04-06T23:40:22.603Z,13.35
2018-04-06T23:42:50.253Z,13.27
2018-04-06T23:45:17.814Z,13.24
2018-04-06T23:47:45.443Z,13.27
2018-04-06T23:50:13.018Z,13.33
2018-04-06T23:52:40.613Z,13.29
2018-04-06T23:55:08.246Z,13.38
2018-04-06T23:57:35.818Z,13.49
